Time;durP1;ratioP1;P1;durP2;ratioP2;P2;SDS_P1;SDS_P2;PMS_P1;PMS_P2;Temp;Humidity;BMP_temperature;BMP_pressure;BME280_temperature;BME280_humidity;BME280_pressure;Samples;Min_cycle;Max_cycle;Signal;HPM_P1;HPM_P2
2021/08/05 00:00:21;;;;;;;2.35;2.25;;;;;;;15.73;63.31;99862.75;4940538;28;20027;-74
2021/08/05 00:03:06;;;;;;;2.33;2.20;;;;;;;15.77;63.60;99872.00;4937530;29;20044;-76
2021/08/05 00:05:43;;;;;;;2.50;2.40;;;;;;;15.74;63.80;99869.88;4954264;29;20070;-76
2021/08/05 00:08:08;;;;;;;2.80;2.70;;;;;;;15.70;64.18;99864.16;4934843;29;20023;-77
2021/08/05 00:10:34;;;;;;;3.05;2.85;;;;;;;15.66;64.28;99865.13;4937226;29;20690;-76
2021/08/05 00:12:59;;;;;;;3.08;2.88;;;;;;;15.62;64.58;99861.34;4938805;29;20062;-77
2021/08/05 00:15:25;;;;;;;2.90;2.50;;;;;;;15.58;65.14;99860.34;4974107;28;20031;-77
2021/08/05 00:17:51;;;;;;;3.00;2.83;;;;;;;15.61;64.82;99860.56;4938091;29;20053;-75
2021/08/05 00:20:16;;;;;;;5.50;2.25;;;;;;;15.58;65.12;99861.19;4939209;29;20054;-76
2021/08/05 00:22:42;;;;;;;3.08;2.97;;;;;;;15.56;64.82;99857.09;4940535;29;20453;-75
2021/08/05 00:25:08;;;;;;;2.72;2.63;;;;;;;15.57;65.22;99864.25;4931486;29;20051;-76
2021/08/05 00:27:34;;;;;;;2.00;1.90;;;;;;;15.56;65.32;99862.63;4952604;28;20038;-76
2021/08/05 00:29:59;;;;;;;2.50;2.40;;;;;;;15.54;65.50;99852.72;4977499;28;20730;-76
2021/08/05 00:32:24;;;;;;;2.13;2.03;;;;;;;15.53;65.44;99851.06;4945088;28;20031;-77
2021/08/05 00:34:50;;;;;;;1.50;1.40;;;;;;;15.56;65.08;99843.31;4938473;28;20027;-75
2021/08/05 00:37:15;;;;;;;1.13;1.13;;;;;;;15.54;65.21;99838.94;4937213;28;20055;-75
2021/08/05 00:39:41;;;;;;;1.00;1.00;;;;;;;15.52;65.29;99838.44;4931715;29;20041;-75
2021/08/05 00:42:06;;;;;;;1.30;1.30;;;;;;;15.58;65.52;99846.56;4923126;28;20019;-76
2021/08/05 00:44:33;;;;;;;1.25;1.25;;;;;;;15.50;65.28;99832.41;4962699;28;20045;-76
2021/08/05 00:46:58;;;;;;;2.45;2.25;;;;;;;15.46;65.39;99825.09;4936779;28;20042;-76
2021/08/05 00:49:24;;;;;;;1.77;1.67;;;;;;;15.45;65.37;99827.06;4959020;28;20034;-75
2021/08/05 00:51:50;;;;;;;2.42;2.33;;;;;;;15.45;65.48;99837.25;4945459;28;20035;-77
2021/08/05 00:54:16;;;;;;;3.00;2.40;;;;;;;15.36;65.69;99827.00;4943610;28;20041;-75
2021/08/05 00:56:42;;;;;;;2.58;2.47;;;;;;;15.34;65.64;99828.41;4937501;29;20071;-76
2021/08/05 00:59:07;;;;;;;1.80;1.70;;;;;;;15.30;65.50;99816.41;4952585;28;20145;-76
2021/08/05 01:01:45;;;;;;;2.63;2.53;;;;;;;15.27;65.75;99817.03;4939336;28;20035;-76
2021/08/05 01:04:13;;;;;;;2.53;2.13;;;;;;;15.20;65.53;99811.97;4959994;28;20026;-76
2021/08/05 01:06:50;;;;;;;2.95;2.85;;;;;;;15.21;65.79;99818.28;4940943;28;20028;-76
2021/08/05 01:09:43;;;;;;;3.70;3.50;;;;;;;15.16;66.24;99816.47;4976651;28;20023;-79
2021/08/05 01:12:39;;;;;;;3.50;3.30;;;;;;;15.04;66.85;99811.50;4975072;28;20077;-77
2021/08/05 01:15:15;;;;;;;5.97;4.35;;;;;;;15.06;66.58;99822.22;4959082;28;20043;-76
2021/08/05 01:17:55;;;;;;;4.95;3.50;;;;;;;15.00;66.98;99816.81;4958567;28;20027;-76
2021/08/05 01:20:22;;;;;;;3.40;3.20;;;;;;;14.96;67.39;99817.75;4984331;28;20046;-76
2021/08/05 01:23:25;;;;;;;4.90;4.40;;;;;;;14.95;67.88;99807.84;4958993;28;20018;-75
2021/08/05 01:26:12;;;;;;;2.47;2.38;;;;;;;14.89;67.50;99806.34;4978751;28;20031;-76
2021/08/05 01:28:40;;;;;;;3.28;3.13;;;;;;;14.83;68.44;99798.22;4965474;28;20396;-75
2021/08/05 01:31:07;;;;;;;3.97;3.78;;;;;;;14.81;68.64;99797.69;4948055;28;20031;-75
2021/08/05 01:33:36;;;;;;;5.75;5.25;;;;;;;14.80;68.42;99787.00;4956672;29;20069;-74
2021/08/05 01:36:03;;;;;;;4.43;4.22;;;;;;;14.77;68.82;99793.13;4971668;23;20055;-74
2021/08/05 01:38:32;;;;;;;5.40;5.07;;;;;;;14.74;69.35;99789.03;4945105;29;20059;-73
2021/08/05 01:40:59;;;;;;;5.28;4.97;;;;;;;14.69;69.85;99791.94;4944697;29;20059;-74
2021/08/05 01:43:26;;;;;;;4.80;4.38;;;;;;;14.65;69.94;99780.69;4951768;28;20125;-74
2021/08/05 01:45:53;;;;;;;4.68;4.38;;;;;;;14.62;69.53;99777.78;4946053;29;20118;-74
2021/08/05 01:48:19;;;;;;;3.70;3.50;;;;;;;14.55;70.18;99777.34;4943497;29;20031;-73
2021/08/05 01:50:47;;;;;;;4.20;3.85;;;;;;;14.54;70.30;99775.72;4936115;29;20039;-73
2021/08/05 01:53:15;;;;;;;4.03;3.72;;;;;;;14.51;70.35;99774.38;4955325;29;20040;-73
2021/08/05 01:55:45;;;;;;;3.50;3.30;;;;;;;14.45;69.43;99759.91;4964330;29;20019;-74
2021/08/05 01:58:11;;;;;;;3.10;2.90;;;;;;;14.42;69.67;99749.53;4940534;29;20035;-74
2021/08/05 02:00:37;;;;;;;2.65;2.47;;;;;;;14.43;70.38;99748.41;4937136;29;20034;-74
2021/08/05 02:03:04;;;;;;;1.63;1.52;;;;;;;14.42;69.93;99735.78;4936466;29;20019;-74
2021/08/05 02:05:55;;;;;;;2.53;2.42;;;;;;;14.46;69.98;99738.75;4948183;29;20099;-73
2021/08/05 02:08:26;;;;;;;1.63;1.52;;;;;;;14.44;70.10;99750.06;4943297;29;20039;-76
2021/08/05 02:10:56;;;;;;;4.57;3.80;;;;;;;14.42;70.34;99738.53;4955395;29;20031;-76
2021/08/05 02:13:37;;;;;;;4.43;4.13;;;;;;;14.40;70.05;99740.78;4939124;29;20231;-77
2021/08/05 02:16:06;;;;;;;4.20;3.92;;;;;;;14.43;70.45;99740.16;4948756;29;20038;-77
2021/08/05 02:18:34;;;;;;;3.85;3.42;;;;;;;14.38;70.50;99736.72;4947690;29;20086;-75
2021/08/05 02:21:02;;;;;;;5.07;4.63;;;;;;;14.38;70.54;99743.00;4945202;29;20097;-76
2021/08/05 02:23:30;;;;;;;4.45;4.15;;;;;;;14.35;70.48;99735.38;4948050;29;20085;-75
2021/08/05 02:25:58;;;;;;;5.15;4.72;;;;;;;14.46;70.55;99744.25;4946262;29;20039;-75
2021/08/05 02:28:25;;;;;;;5.03;4.72;;;;;;;14.54;70.73;99734.44;4940206;29;20157;-75
2021/08/05 02:30:52;;;;;;;6.32;5.72;;;;;;;14.57;70.67;99740.16;4947606;29;20027;-75
2021/08/05 02:33:20;;;;;;;7.25;6.43;;;;;;;14.56;70.59;99723.94;4961819;29;20077;-73
2021/08/05 02:35:53;;;;;;;6.32;5.82;;;;;;;14.59;70.79;99729.63;4962009;28;20079;-72
2021/08/05 02:38:19;;;;;;;5.80;5.47;;;;;;;14.57;71.04;99725.56;4924866;28;20074;-74
2021/08/05 02:40:48;;;;;;;5.25;4.95;;;;;;;14.54;70.97;99723.44;4976492;28;20008;-74
2021/08/05 02:43:15;;;;;;;4.93;4.53;;;;;;;14.48;71.08;99726.31;4959720;28;20007;-74
2021/08/05 02:45:42;;;;;;;5.28;4.78;;;;;;;14.43;70.54;99723.66;4954339;29;20027;-75
2021/08/05 02:48:09;;;;;;;5.65;5.20;;;;;;;14.35;71.53;99727.13;4949177;29;20099;-73
2021/08/05 02:50:35;;;;;;;6.18;5.72;;;;;;;14.30;70.93;99727.25;4964447;29;20019;-75
2021/08/05 02:53:03;;;;;;;5.13;4.65;;;;;;;14.28;71.27;99726.75;4944053;29;20042;-73
2021/08/05 02:55:29;;;;;;;6.40;4.13;;;;;;;14.22;71.26;99727.97;4938875;29;20046;-76
2021/08/05 02:57:55;;;;;;;6.57;6.15;;;;;;;14.17;70.94;99730.84;4959084;29;20019;-70
2021/08/05 03:00:21;;;;;;;6.97;6.35;;;;;;;14.10;71.54;99720.25;4937398;29;20616;-69
2021/08/05 03:02:49;;;;;;;11.52;7.18;;;;;;;14.04;71.56;99716.78;4944366;29;20034;-70
2021/08/05 03:05:34;;;;;;;7.22;6.68;;;;;;;14.02;72.36;99724.53;4943170;28;20043;-73
2021/08/05 03:07:59;;;;;;;6.68;6.28;;;;;;;13.99;72.29;99713.31;4931094;29;20034;-72
2021/08/05 03:10:28;;;;;;;7.55;6.85;;;;;;;13.90;72.18;99708.56;4965783;29;20114;-72
2021/08/05 03:13:40;;;;;;;4.60;4.35;;;;;;;13.90;72.47;99704.97;4965913;28;20039;-72
2021/08/05 03:16:25;;;;;;;4.75;4.55;;;;;;;13.87;72.84;99697.34;4962107;29;20103;-74
2021/08/05 03:19:04;;;;;;;6.22;5.63;;;;;;;13.84;72.48;99689.72;4962313;29;20039;-72
2021/08/05 03:21:57;;;;;;;6.75;6.25;;;;;;;13.81;72.74;99679.34;4926824;29;20058;-72
2021/08/05 03:29:53;;;;;;;4.53;4.28;;;;;;;13.86;73.29;99673.75;4969479;28;20055;-71
2021/08/05 03:32:19;;;;;;;7.07;4.90;;;;;;;13.86;73.98;99671.00;4961761;28;20047;-70
2021/08/05 03:34:44;;;;;;;3.92;3.72;;;;;;;13.87;73.76;99667.13;4982774;28;20122;-69
2021/08/05 03:37:10;;;;;;;2.90;2.80;;;;;;;13.85;73.53;99672.13;4961031;28;20733;-71
2021/08/05 03:39:35;;;;;;;2.55;2.38;;;;;;;13.85;73.68;99666.63;4954118;28;20052;-72
2021/08/05 03:42:01;;;;;;;2.85;2.75;;;;;;;13.84;73.14;99660.28;4961639;28;20042;-70
2021/08/05 03:44:26;;;;;;;1.85;1.75;;;;;;;13.83;73.24;99655.94;4964576;28;20025;-70
2021/08/05 03:46:51;;;;;;;1.00;1.00;;;;;;;13.84;72.84;99656.75;4960961;28;20031;-71
2021/08/05 03:49:17;;;;;;;1.90;1.60;;;;;;;13.84;73.21;99654.00;4975859;28;20114;-71
2021/08/05 03:51:42;;;;;;;1.70;1.60;;;;;;;13.85;73.04;99655.63;4978107;28;20082;-75
2021/08/05 03:54:08;;;;;;;2.20;2.03;;;;;;;13.84;72.74;99651.25;4956296;28;20122;-73
2021/08/05 03:56:34;;;;;;;2.47;2.38;;;;;;;13.84;73.27;99659.50;4971713;28;20449;-75
2021/08/05 03:59:00;;;;;;;2.25;2.13;;;;;;;13.83;72.94;99661.44;4977097;28;20117;-75
2021/08/05 04:01:26;;;;;;;3.25;3.05;;;;;;;13.84;73.11;99648.50;4975031;28;20039;-75
2021/08/05 04:03:51;;;;;;;4.18;3.90;;;;;;;13.87;73.66;99653.38;4980018;28;20102;-76
2021/08/05 04:06:17;;;;;;;3.90;3.60;;;;;;;13.87;73.53;99647.88;4967186;28;20042;-75
2021/08/05 04:08:42;;;;;;;3.70;3.50;;;;;;;13.88;73.81;99649.53;4978300;28;20035;-75
2021/08/05 04:11:07;;;;;;;3.47;3.28;;;;;;;13.89;73.86;99653.91;4951257;28;20776;-74
2021/08/05 04:13:33;;;;;;;2.58;2.47;;;;;;;13.89;73.33;99648.41;4955007;28;20041;-75
2021/08/05 04:15:58;;;;;;;2.00;1.90;;;;;;;13.92;73.53;99650.53;4972301;28;20038;-75
2021/08/05 04:18:24;;;;;;;1.52;1.42;;;;;;;13.94;73.15;99635.38;4955036;28;20038;-74
2021/08/05 04:20:49;;;;;;;2.03;1.92;;;;;;;13.96;73.18;99626.81;4945081;28;20150;-73
2021/08/05 04:23:15;;;;;;;1.75;1.65;;;;;;;14.05;73.70;99635.94;4945964;28;20480;-74
2021/08/05 04:25:41;;;;;;;2.63;2.53;;;;;;;14.11;73.26;99637.47;4943666;28;20094;-75
2021/08/05 04:28:09;;;;;;;2.55;2.45;;;;;;;14.14;72.76;99627.78;4948547;28;20051;-74
2021/08/05 04:30:35;;;;;;;3.50;3.30;;;;;;;14.23;73.16;99622.38;4936832;28;20039;-75
2021/08/05 04:33:00;;;;;;;4.45;4.25;;;;;;;14.31;72.90;99629.91;4954891;28;20366;-75
2021/08/05 04:35:26;;;;;;;4.43;4.22;;;;;;;14.42;73.61;99639.50;4935574;28;20034;-75
2021/08/05 04:37:58;;;;;;;5.30;4.90;;;;;;;14.45;73.34;99630.63;4955669;28;20042;-75
2021/08/05 04:40:25;;;;;;;3.80;3.60;;;;;;;14.51;73.17;99625.81;4965825;28;20022;-75
2021/08/05 04:42:50;;;;;;;5.22;4.82;;;;;;;14.55;72.86;99626.03;4944991;28;20034;-75
2021/08/05 04:45:16;;;;;;;3.63;3.42;;;;;;;14.56;72.56;99617.47;4967301;28;20033;-75
2021/08/05 04:47:49;;;;;;;2.80;2.70;;;;;;;14.53;72.65;99611.75;4976660;28;20050;-76
2021/08/05 04:50:15;;;;;;;3.35;3.15;;;;;;;14.58;72.55;99617.94;4959115;28;20026;-76
2021/08/05 04:52:41;;;;;;;4.00;3.80;;;;;;;14.59;72.96;99616.84;4976474;28;20022;-74
2021/08/05 04:55:08;;;;;;;2.30;2.20;;;;;;;14.63;73.08;99611.53;4975601;28;20026;-76
2021/08/05 04:57:33;;;;;;;1.50;1.40;;;;;;;14.68;72.62;99613.38;4983864;28;20053;-76
2021/08/05 04:59:59;;;;;;;1.35;1.35;;;;;;;14.75;72.78;99608.25;4959507;28;20485;-77
2021/08/05 05:02:24;;;;;;;1.75;1.65;;;;;;;14.80;72.17;99606.16;4981652;28;20042;-76
2021/08/05 05:04:50;;;;;;;1.67;1.65;;;;;;;14.87;72.68;99605.72;4970098;28;20077;-78
2021/08/05 05:07:15;;;;;;;1.38;1.27;;;;;;;14.95;71.68;99598.63;4976285;28;20499;-77
2021/08/05 05:09:41;;;;;;;1.60;1.50;;;;;;;15.03;71.99;99595.13;4953138;28;20090;-77
2021/08/05 05:12:06;;;;;;;2.15;2.05;;;;;;;15.07;72.15;99587.03;4946965;28;20027;-78
2021/08/05 05:14:32;;;;;;;2.53;2.42;;;;;;;15.14;71.82;99588.22;4963457;28;20015;-75
2021/08/05 05:16:57;;;;;;;1.75;1.65;;;;;;;15.18;72.10;99586.44;4969247;28;20035;-73
2021/08/05 05:19:24;;;;;;;4.80;4.55;;;;;;;15.27;71.91;99585.66;4949971;28;20043;-74
2021/08/05 05:21:49;;;;;;;4.40;4.13;;;;;;;15.31;71.82;99586.66;4993093;28;20034;-75
2021/08/05 05:24:15;;;;;;;5.38;4.97;;;;;;;15.38;71.83;99586.22;4966957;28;20019;-75
2021/08/05 05:26:40;;;;;;;4.22;3.85;;;;;;;15.44;72.17;99591.22;4982537;28;20039;-77
2021/08/05 05:29:06;;;;;;;5.25;4.75;;;;;;;15.48;71.54;99586.72;4984338;28;20039;-77
2021/08/05 05:31:31;;;;;;;5.32;4.95;;;;;;;15.51;71.65;99590.78;4943009;28;20400;-74
2021/08/05 05:33:57;;;;;;;3.30;3.20;;;;;;;15.51;71.53;99585.28;4967103;28;20098;-74
2021/08/05 05:36:23;;;;;;;3.72;3.53;;;;;;;15.46;71.54;99580.72;4962126;28;20089;-73
2021/08/05 05:38:51;;;;;;;7.50;4.70;;;;;;;15.50;71.59;99584.44;4969427;28;20038;-73
2021/08/05 05:41:16;;;;;;;4.22;3.90;;;;;;;15.50;71.54;99584.44;4927679;28;20038;-74
2021/08/05 05:43:42;;;;;;;3.63;3.42;;;;;;;15.52;71.64;99571.19;4953869;28;20039;-71
2021/08/05 05:46:07;;;;;;;3.17;3.00;;;;;;;15.55;71.27;99566.97;4963277;28;20039;-72
2021/08/05 05:48:33;;;;;;;2.67;2.58;;;;;;;15.53;71.77;99556.25;4940960;28;20088;-72
2021/08/05 05:50:59;;;;;;;3.65;3.38;;;;;;;15.59;71.03;99561.63;4962515;28;20504;-73
2021/08/05 05:53:24;;;;;;;2.95;2.85;;;;;;;15.58;71.34;99555.31;4973430;28;20121;-72
2021/08/05 05:55:52;;;;;;;2.08;1.98;;;;;;;15.65;70.96;99552.06;4953022;28;20025;-72
2021/08/05 05:58:17;;;;;;;2.83;2.72;;;;;;;15.78;71.02;99556.66;4950650;29;20078;-73
2021/08/05 06:00:43;;;;;;;2.30;2.10;;;;;;;15.84;70.79;99543.53;4964861;28;20473;-73
2021/08/05 06:03:09;;;;;;;2.00;1.90;;;;;;;15.93;70.46;99544.38;4958625;28;20034;-71
2021/08/05 06:05:37;;;;;;;1.60;1.60;;;;;;;16.00;70.55;99546.63;4942939;28;20321;-71
2021/08/05 06:08:03;;;;;;;1.63;1.63;;;;;;;16.10;70.29;99551.81;4944715;28;20099;-72
2021/08/05 06:10:29;;;;;;;3.22;3.13;;;;;;;16.14;70.17;99547.28;4940718;28;20031;-71
2021/08/05 06:12:55;;;;;;;3.10;3.00;;;;;;;16.16;70.27;99539.47;4971473;28;20109;-71
2021/08/05 06:15:21;;;;;;;3.15;2.88;;;;;;;16.27;70.09;99539.97;4937736;29;20205;-73
2021/08/05 06:17:47;;;;;;;3.67;3.47;;;;;;;16.31;69.96;99518.06;4977183;28;20035;-72
2021/08/05 06:20:15;;;;;;;3.10;3.00;;;;;;;16.37;70.12;99525.03;4974186;28;20034;-72
2021/08/05 06:22:45;;;;;;;2.33;2.22;;;;;;;16.38;70.03;99530.22;4992921;28;20087;-74
2021/08/05 06:25:13;;;;;;;2.72;2.63;;;;;;;16.32;69.91;99526.00;4979562;28;20046;-70
2021/08/05 06:30:31;;;;;;;2.95;2.85;;;;;;;16.45;70.09;99532.47;4977027;28;20047;-73
2021/08/05 06:32:57;;;;;;;4.28;4.05;;;;;;;16.55;69.91;99529.38;4962746;28;20150;-73
2021/08/05 06:35:23;;;;;;;6.00;5.60;;;;;;;16.69;70.49;99539.41;4979102;28;20480;-73
2021/08/05 06:37:49;;;;;;;4.18;3.97;;;;;;;16.74;69.90;99528.19;4944042;28;20026;-75
2021/08/05 06:40:15;;;;;;;3.65;3.38;;;;;;;16.76;69.81;99523.16;4956114;28;20034;-72
2021/08/05 06:42:41;;;;;;;2.85;2.75;;;;;;;16.85;69.90;99521.19;4971327;28;20057;-73
2021/08/05 06:45:09;;;;;;;3.95;3.75;;;;;;;16.99;69.91;99522.94;4976991;28;20446;-73
2021/08/05 06:47:38;;;;;;;4.90;4.60;;;;;;;17.13;70.25;99515.25;4973076;28;20033;-71
2021/08/05 06:50:04;;;;;;;5.95;5.35;;;;;;;17.36;70.10;99510.25;4942763;28;20106;-73
2021/08/05 06:52:29;;;;;;;4.05;3.85;;;;;;;17.65;69.53;99502.28;4957405;28;20034;-72
2021/08/05 06:54:57;;;;;;;6.60;5.88;;;;;;;17.84;68.80;99502.59;4972684;28;20049;-73
2021/08/05 06:57:23;;;;;;;6.57;5.88;;;;;;;17.86;68.04;99497.56;4969852;28;20451;-73
2021/08/05 06:59:48;;;;;;;4.90;4.60;;;;;;;17.90;68.19;99501.31;4948767;28;20061;-76
2021/08/05 07:02:14;;;;;;;4.93;4.72;;;;;;;18.06;68.52;99487.66;4976981;28;20035;-74
2021/08/05 07:04:42;;;;;;;5.70;4.65;;;;;;;18.29;67.94;99493.59;4940334;28;20035;-75
2021/08/05 07:07:08;;;;;;;4.78;4.38;;;;;;;18.56;67.42;99490.56;4959534;28;20031;-74
2021/08/05 07:09:34;;;;;;;5.72;5.30;;;;;;;18.78;67.19;99487.41;4951551;28;20169;-73
2021/08/05 07:12:06;;;;;;;4.00;3.80;;;;;;;18.99;66.75;99486.53;4957201;28;20035;-73
2021/08/05 07:14:46;;;;;;;;;;;;;;;;;;;;;
2021/08/05 07:17:15;;;;;;;4.30;4.00;;;;;;;18.56;65.75;99479.50;4967992;28;20082;-75
2021/08/05 07:20:12;;;;;;;;;;;;;;;;;;;;;
2021/08/05 07:23:20;;;;;;;4.15;3.90;;;;;;;18.18;66.43;99453.69;4966454;28;20556;-74
2021/08/05 07:33:09;;;;;;;;;;;;;;;;;;;;;
2021/08/05 07:36:26;;;;;;;2.95;2.75;;;;;;;19.17;65.25;99459.38;4939642;28;20122;-74
2021/08/05 07:39:34;;;;;;;;;;;;;;;;;;;;;
2021/08/05 07:46:15;;;;;;;2.50;2.30;;;;;;;19.94;60.76;99447.44;4881331;29;20036;-78
2021/08/05 07:52:10;;;;;;;1.90;1.80;;;;;;;19.53;58.19;99425.25;4891017;29;20123;-75
2021/08/05 07:54:47;;;;;;;2.10;2.00;;;;;;;19.49;58.62;99420.75;4895845;29;20063;-76
2021/08/05 07:57:30;;;;;;;1.15;1.00;;;;;;;19.40;59.22;99406.25;4899499;29;20032;-77
2021/08/05 08:03:18;;;;;;;2.15;1.85;;;;;;;19.56;59.28;99418.19;4895187;29;20036;-77
2021/08/05 08:06:15;;;;;;;;;;;;;;;;;;;;;
2021/08/05 08:08:46;;;;;;;4.00;1.90;;;;;;;19.44;59.06;99396.88;4897091;29;20112;-77
2021/08/05 08:14:35;;;;;;;3.25;2.35;;;;;;;19.32;58.69;99400.47;4879547;29;20029;-77
2021/08/05 08:18:06;;;;;;;3.20;2.28;;;;;;;19.21;59.08;99393.78;4890020;29;20033;-76
2021/08/05 08:20:32;;;;;;;1.75;1.65;;;;;;;19.19;58.97;99390.59;4892992;29;20036;-77
2021/08/05 08:22:58;;;;;;;2.20;1.95;;;;;;;19.08;59.40;99384.69;4940576;29;20091;-76
2021/08/05 08:25:25;;;;;;;1.85;1.75;;;;;;;19.04;59.23;99399.59;4938373;29;20040;-76
2021/08/05 08:27:57;;;;;;;2.30;1.80;;;;;;;19.02;59.76;99397.16;4912281;29;20043;-80
2021/08/05 08:31:08;;;;;;;1.65;1.55;;;;;;;18.99;59.93;99370.97;4937581;29;20074;-80
2021/08/05 08:34:25;;;;;;;1.70;1.60;;;;;;;19.09;59.67;99379.97;4917504;29;20050;-80
2021/08/05 08:36:48;;;;;;;1.58;1.48;;;;;;;19.22;59.66;99387.09;4960330;29;20038;-78
2021/08/05 08:39:16;;;;;;;2.15;1.00;;;;;;;19.32;59.86;99389.38;4962864;29;20027;-78
2021/08/05 08:41:42;;;;;;;1.98;1.88;;;;;;;19.34;59.06;99380.72;4946514;29;20035;-76
2021/08/05 08:44:09;;;;;;;1.85;1.55;;;;;;;19.34;59.61;99372.41;4940604;29;20103;-78
2021/08/05 08:46:36;;;;;;;3.80;1.80;;;;;;;19.32;58.98;99367.22;4962667;29;20394;-77
2021/08/05 08:49:05;;;;;;;3.15;2.22;;;;;;;19.47;58.62;99368.44;4942209;29;20518;-77
2021/08/05 08:51:44;;;;;;;;;;;;;;;;;;;;;
2021/08/05 08:54:18;;;;;;;1.60;1.25;;;;;;;20.10;58.55;99346.81;4955801;29;20122;-78
2021/08/05 08:56:51;;;;;;;1.70;1.60;;;;;;;20.40;57.61;99353.53;4937197;29;20027;-76
2021/08/05 09:02:47;;;;;;;1.58;1.48;;;;;;;20.51;56.30;99341.88;4952500;29;20042;-74
2021/08/05 09:05:23;;;;;;;;;;;;;;;;;;;;;
2021/08/05 09:07:48;;;;;;;4.32;1.73;;;;;;;20.13;57.03;99354.41;4955201;29;20417;-72
2021/08/05 09:10:14;;;;;;;1.75;1.40;;;;;;;19.85;57.88;99355.25;4956578;29;20065;-72
2021/08/05 09:12:47;;;;;;;1.50;1.40;;;;;;;19.46;58.70;99333.53;4939189;29;20062;-72
2021/08/05 09:15:48;;;;;;;2.10;1.88;;;;;;;19.25;59.84;99339.28;4938583;29;20086;-73
2021/08/05 09:18:40;;;;;;;1.70;1.60;;;;;;;19.07;60.20;99343.47;4943587;29;20418;-72
2021/08/05 09:21:13;;;;;;;1.90;1.80;;;;;;;18.84;62.04;99336.47;4940945;29;20050;-70
2021/08/05 09:23:48;;;;;;;2.10;1.73;;;;;;;18.88;62.43;99330.25;4961036;29;20025;-71
2021/08/05 09:26:38;;;;;;;1.75;1.65;;;;;;;19.06;62.06;99325.28;4956371;28;20027;-71
2021/08/05 09:29:15;;;;;;;1.73;1.63;;;;;;;19.24;61.88;99337.66;4958565;28;20216;-71
2021/08/05 09:31:44;;;;;;;4.40;1.90;;;;;;;19.49;62.06;99309.88;4980788;28;20089;-71
2021/08/05 09:34:14;;;;;;;2.90;2.03;;;;;;;19.64;60.53;99317.44;4977302;28;20055;-71
2021/08/05 09:36:41;;;;;;;2.13;2.03;;;;;;;19.63;60.24;99321.34;4963879;28;20103;-72
2021/08/05 09:39:27;;;;;;;2.60;1.60;;;;;;;19.67;60.46;99296.50;4959527;28;20038;-73
2021/08/05 09:41:53;;;;;;;;;;;;;;;19.75;59.91;99305.81;4987362;28;20030;-72
2021/08/05 09:44:19;;;;;;;1.65;1.55;;;;;;;19.50;60.22;99309.50;4986039;28;19921;-72
2021/08/05 09:46:44;;;;;;;2.15;1.50;;;;;;;19.44;61.53;99297.06;4969950;28;20059;-74
2021/08/05 09:49:19;;;;;;;1.48;1.38;;;;;;;19.91;61.65;99287.25;4990145;28;20031;-75
2021/08/05 09:52:37;;;;;;;1.58;1.33;;;;;;;20.68;60.02;99274.88;4982451;28;20035;-80
2021/08/05 09:55:07;;;;;;;1.77;1.67;;;;;;;21.16;58.26;99279.44;4947638;28;20034;-72
2021/08/05 09:57:38;;;;;;;1.70;1.60;;;;;;;21.17;56.22;99267.97;4941319;29;20031;-73
2021/08/05 10:00:08;;;;;;;1.35;1.25;;;;;;;21.17;56.82;99267.16;4968606;28;20046;-70
2021/08/05 10:02:43;;;;;;;1.83;1.73;;;;;;;21.35;56.36;99267.50;4962907;28;20157;-74
2021/08/05 10:05:25;;;;;;;1.40;1.40;;;;;;;21.27;55.38;99267.41;4966306;28;20023;-73
2021/08/05 10:07:58;;;;;;;2.75;1.70;;;;;;;21.08;56.05;99270.16;4973972;28;20045;-72
2021/08/05 10:10:27;;;;;;;2.03;1.60;;;;;;;21.04;56.81;99256.19;4960647;28;20041;-73
2021/08/05 10:12:58;;;;;;;4.30;2.20;;;;;;;21.06;56.09;99259.41;4973449;28;20093;-74
2021/08/05 10:15:28;;;;;;;1.55;1.40;;;;;;;21.07;56.53;99258.25;4979208;28;20045;-75
2021/08/05 10:18:00;;;;;;;1.50;1.40;;;;;;;21.02;56.63;99252.97;4978098;28;20042;-74
2021/08/05 10:20:27;;;;;;;1.27;1.02;;;;;;;20.90;56.34;99258.69;4955436;28;20504;-73
2021/08/05 10:22:56;;;;;;;14.13;1.52;;;;;;;20.74;56.57;99265.06;4975929;28;20030;-74
2021/08/05 10:25:25;;;;;;;1.73;1.30;;;;;;;20.65;56.75;99252.56;4981364;28;20038;-74
2021/08/05 10:27:53;;;;;;;0.85;0.85;;;;;;;20.52;57.15;99241.56;4970990;28;20035;-74
2021/08/05 10:30:19;;;;;;;2.10;1.10;;;;;;;20.71;56.93;99265.81;4977465;28;20403;-74
2021/08/05 10:32:45;;;;;;;1.52;1.17;;;;;;;20.86;56.47;99246.69;4971394;28;20023;-73
2021/08/05 10:35:12;;;;;;;1.10;1.00;;;;;;;20.94;56.04;99281.78;4991081;28;20038;-74
2021/08/05 10:37:39;;;;;;;1.20;1.10;;;;;;;20.75;55.86;99252.81;4983115;28;20085;-75
2021/08/05 10:40:17;;;;;;;;;;;;;;;;;;;;;
2021/08/05 10:42:45;;;;;;;1.48;1.10;;;;;;;20.55;56.48;99231.69;4990031;28;20038;-76
2021/08/05 10:48:46;;;;;;;;;;;;;;;;;;;;;
2021/08/05 10:51:45;;;;;;;;;;;;;;;;;;;;;
2021/08/05 10:54:22;;;;;;;0.70;0.70;;;;;;;20.94;55.07;99226.22;4976997;28;20205;-78
2021/08/05 10:56:57;;;;;;;;;;;;;;;;;;;;;
2021/08/05 10:59:34;;;;;;;;;;;;;;;;;;;;;
2021/08/05 11:02:06;;;;;;;1.02;1.00;;;;;;;20.95;54.31;99188.91;4986968;28;20152;-77
2021/08/05 11:04:45;;;;;;;;;;;;;;;;;;;;;
2021/08/05 11:07:39;;;;;;;0.77;0.70;;;;;;;21.10;54.32;99213.03;4987198;28;20070;-80
2021/08/05 11:10:46;;;;;;;;;;;;;;;;;;;;;
2021/08/05 11:13:32;;;;;;;2.25;0.80;;;;;;;20.34;57.00;99193.97;4934505;28;20033;-77
2021/08/05 11:16:00;;;;;;;1.17;0.88;;;;;;;19.85;59.71;99191.59;4978763;28;20035;-76
2021/08/05 11:18:54;;;;;;;0.70;0.70;;;;;;;19.60;60.87;99205.59;4949236;28;20062;-76
2021/08/05 11:21:39;;;;;;;;;;;;;;;;;;;;;
2021/08/05 11:24:48;;;;;;;1.13;1.13;;;;;;;19.22;64.43;99186.78;4968392;28;20122;-75
2021/08/05 11:27:44;;;;;;;;;;;;;;;;;;;;;
2021/08/05 11:30:58;;;;;;;1.45;1.35;;;;;;;19.27;64.36;99162.38;4969876;28;20130;-75
2021/08/05 11:34:08;;;;;;;;;;;;;;;;;;;;;
2021/08/05 11:36:42;;;;;;;2.08;1.88;;;;;;;19.90;63.41;99137.81;4973170;28;20102;-75
2021/08/05 11:39:44;;;;;;;5.15;1.85;;;;;;;20.34;62.10;99155.09;4967549;28;20078;-74
2021/08/05 11:42:12;;;;;;;1.48;1.38;;;;;;;20.62;61.14;99143.00;4960071;28;20503;-77
2021/08/05 11:44:54;;;;;;;1.35;1.20;;;;;;;20.66;59.38;99132.78;4979455;28;20026;-75
2021/08/05 11:47:42;;;;;;;4.82;1.20;;;;;;;20.36;58.73;99140.84;4976469;28;20031;-77
2021/08/05 11:50:23;;;;;;;;;;;;;;;;;;;;;
2021/08/05 11:52:52;;;;;;;1.40;0.82;;;;;;;19.10;66.52;99132.22;4980029;28;20106;-76
2021/08/05 11:55:30;;;;;;;2.78;1.27;;;;;;;18.81;68.25;99131.44;4960965;28;20046;-76
2021/08/05 11:57:59;;;;;;;1.70;1.10;;;;;;;18.58;69.62;99120.88;4977967;28;20034;-74
2021/08/05 12:01:25;;;;;;;;;;;;;;;;;;;;;
2021/08/05 12:04:43;;;;;;;1.40;1.30;;;;;;;18.71;71.31;99093.97;4884624;29;20089;-75
2021/08/05 12:07:47;;;;;;;;;;;;;;;;;;;;;
2021/08/05 12:10:28;;;;;;;1.65;1.52;;;;;;;18.82;71.35;99094.25;4972987;28;20023;-75
2021/08/05 12:13:03;;;;;;;1.27;1.20;;;;;;;18.67;71.16;99088.34;4978867;28;20500;-75
2021/08/05 12:15:29;;;;;;;1.48;1.38;;;;;;;18.63;70.96;99087.44;4974498;28;20027;-75
2021/08/05 12:18:30;;;;;;;2.45;1.38;;;;;;;18.51;71.59;99084.69;4981613;28;20058;-76
2021/08/05 12:21:05;;;;;;;1.92;1.83;;;;;;;18.36;71.93;99083.50;4991192;28;20027;-75
2021/08/05 12:23:47;;;;;;;1.58;1.48;;;;;;;18.38;72.23;99072.06;4980541;28;20026;-76
2021/08/05 12:26:36;;;;;;;4.03;1.42;;;;;;;18.22;72.31;99055.41;4957515;28;20033;-74
2021/08/05 12:29:45;;;;;;;2.30;2.20;;;;;;;18.20;73.77;99080.66;4961876;28;20043;-74
2021/08/05 12:33:03;;;;;;;1.70;1.60;;;;;;;18.04;73.90;99071.47;4960287;28;20046;-75
2021/08/05 12:35:53;;;;;;;;;;;;;;;;;;;;;
2021/08/05 12:38:54;;;;;;;2.20;1.95;;;;;;;18.05;77.22;99059.28;4978895;28;20086;-73
2021/08/05 12:45:01;;;;;;;;;;;;;;;;;;;;;
2021/08/05 12:47:44;;;;;;;2.60;1.75;;;;;;;17.85;77.85;99036.13;4977301;28;20095;-74
2021/08/05 12:50:23;;;;;;;;;;;;;;;;;;;;;
2021/08/05 12:52:54;;;;;;;2.47;2.38;;;;;;;17.78;78.45;99031.16;4971903;28;20083;-74
2021/08/05 12:55:20;;;;;;;3.95;2.67;;;;;;;17.62;78.32;99012.53;4955191;28;20110;-72
2021/08/05 12:57:51;;;;;;;1.70;1.60;;;;;;;17.66;78.73;99025.66;4955512;28;20016;-73
2021/08/05 13:00:28;;;;;;;2.22;1.80;;;;;;;17.49;78.61;99018.41;4940918;28;20070;-74
2021/08/05 13:02:55;;;;;;;1.95;1.85;;;;;;;17.19;79.33;99025.00;4931584;29;20118;-78
2021/08/05 13:05:53;;;;;;;1.80;1.70;;;;;;;17.05;79.77;99027.28;4941324;28;20031;-78
2021/08/05 13:08:32;;;;;;;1.20;1.20;;;;;;;17.00;80.79;99022.78;4968105;28;20066;-76
2021/08/05 13:11:00;;;;;;;1.33;1.23;;;;;;;16.96;81.16;99024.63;4945861;28;20027;-76
2021/08/05 13:13:55;;;;;;;1.20;1.20;;;;;;;16.99;80.87;99017.59;4961695;28;20031;-76